Timeline UpdatesTrip UpdatesNews PostsPvt Posts♥♥Travel TipsAdmin PostsConv PostsFollowed PostsChat RequestsBlog PostsPNR Posts

Disclaimer
Search
 
 
Sat Nov 1, 2014 01:38:38 ISTHomeTrainsΣChainsAtlasPNRForumGalleryNewsFAQTripsMembersLoginFeedback
No Recent News for this Train
Other Trains in the News **new
Latest...
.
Tue Jan 22, 2013 (09:18AM)
⇐ Return Journey: Train# 51421

51422/Nizamabad Pune Passenger (UnReserved)

Time-Table HAS CHANGED.
Sep 03 2014 (4:44PM)
Change Departure Station:
Change Arrival Station:
Post a Train Travel TipPost a Train Travel Tip **new
Post a Comment/Question/Picture/VideoPost a Comment/Question/Picture/Video
Pantry/Catering
✕ NO Pantry Car
✓ Catering Avbl
Loco/Rake Reversals
DD/Daund Junction (7);
RSA - Rake Sharing
51433-34 and 51451-52
Rake/Coach Composition
SLR, UR, UR, UR, UR, UR, UR, UR, SLR,
Loco
PUNE WDM/G-3A / WDM-3D
News    PNR    Forum    Time-Table    Availability    Fare Chart    Map    Arr/Dep History    Trips    Gallery    ΣChains    X/O    Timeline    
Travel Time: 7h 25m    25 halts    Distance: 238 km    Avg Speed: 32 km/hr
Type: Passenger
Zone: CR/Central
Departs @ 13:30 (Avg 1h 41m late)
Platform# 1
SMTWTFS
Chitali/CIT 
Arrives @ 20:55 (Avg 1h 20m late)
Platform# 6
SMTWTFS
Pune Junction/PUNE 

25 halts. 33 intermediate Stations between Chitali and Pune Junction

Show ALL intermediate Stations  Show Old Time-Table

#TrkCodeStation NameX/OArrivesAvgDepartsAvgHaltPFDay#KmSpeedElevZoneAddress
1|--|NZBNizamabad (3)  -23:40+46--1-535.547384mSCRNizamabad, Telangana
2|--|JKMJankampet Junction (1)  23:48+1:2423:49+1:241m11-529.356391mSCRJankampet Junction nizamabad dist., Telangana
3|--|NVTNavipet (2)  23:59+1:2800:01+1:292m--1-519.955374mSCRNizamabad Dist., Telangana
4|--|BSXBasar (2)  00:16+5100:18+512m12-506.159358mSCRDist Adilabad, Telangana
5|--|DABDharmabad (2)  00:28+1:2400:29+1:251m--2-496.369354mSCRDegaon, Maharashtra
6|--|KEKKarkheliX  00:41+1:2500:42+1:301m--2-482.555358mSCRBiloli, Maharashtra
7|--|BLSABolsaXO  00:50+1:3300:51+1:331m--2-475.222361mSCRDharmabad, Maharashtra
8|--|UMRIUmri (1)XO  01:14+1:1601:15+1:161m12-466.853381mSCRHuzur Sahib Nanded, Maharashtra
9|--|SVNSivungaonX  01:29+1:1401:30+1:171m--2-454.615395mSCRHuzur Sahib Nanded, Maharashtra
10|--|MUEMudkhed Junction (4)  01:58+1:2002:00+1:222m--2-447.461378mSCRMudkhed, Maharashtra
11|--|MGCMugat  02:09+1:4402:10+1:441m--2-438.226360mSCRHuzur Sahib Nanded, Maharashtra
12|--|NEDHazur Sahib Nanded (4)  02:40+4502:45+495m22-425.056366mSCRNanded, Maharashtra
13|--|LBGLimbgaon (2)X  02:58 02:57+1:4802:59 02:58+1:491m--2-413.964390mSCRHuzur Sahib Nanded, Maharashtra
14|--|CRUChudawa (1)X  03:07+1:5203:08+1:561m12-404.335392mSCRHingoli, Maharashtra
15|--|PAUPurna Junction (4)X  03:25+1:2103:30+1:365m--2-394.452384mSCRPurna, Maharashtra
16|--|MQLMirkhal  03:44+2:1403:45+2:151m--2-382.354405mSCRPurna, Maharashtra
17|--|PIZPingli (1)X  03:51+2:1703:52+2:181m12-376.960399mSCRParbhani, Maharashtra
18|--|PBNParbhani Junction (3)X  04:03+1:0204:05+1:022m12-365.966414mSCRParbhani 431401, Maharashtra
19|--|PGPergaon  04:16+2:2404:17+2:241m--2-353.876441mSCRParbhani, Maharashtra
20|--|MVOManwath Road (2)  04:29+2:2704:30+2:291m--2-338.582421mSCRParbhani, Maharashtra
21|--|SELUSelu (2)  04:41+2:1704:42+2:191m--2-323.587436mSCRParbhani, Maharashtra
22|--|SCOSatuna  04:49+2:4104:50+2:431m--2-313.353440mSCRSatona, Maharashtra
23|--|UPRUsmanpur  04:59+2:4305:00+2:441m--2-305.420444mSCRUsmanpur, Maharashtra
24|--|PTUPartur (2)X  05:29+2:2505:30+2:261m--2-295.948465mSCRJalna, Maharashtra
25|--|PDGParadgaon  05:39-05:40-1m--2-288.742454mSCRUsmanpur, Maharashtra
26|--|RNERanjani  05:49+2:2205:50+2:231m--2-282.536469mSCRJalna, Maharashtra
27|--|KODIKodiXO  06:19 06:09+2:1506:20 06:10+2:151m--2-271.225473mSCRRanjani, Maharashtra
28|--|SVDSarwari  06:34+2:0406:35+2:051m--2-261.321493mSCRRanjani, Maharashtra
29|--|JJalna (3)  07:03+1:2207:05+1:232m--2-251.660502mSCRJalna, Maharashtra
30|--|BDUBadnapur  07:24+1:4507:25+1:481m--2-232.666523mSCRJalna, Maharashtra
31|--|KMVKarmadX  07:39+1:5007:40+1:521m--2-217.126567mSCRAurangabad, Maharashtra
32|--|CTHChikalthan  07:49+1:4507:50+1:501m--2-213.2-582mSCRAurangabad, Maharashtra
33|--|MKDDMukundwadi Halt (1)  07:54-07:55-1m12-198.930580mSCRAurangabad, Maharashtra
34|--|AWBAurangabad (5)X  08:15+1:1308:20+1:165m--2-188.953561mSCRAurangabad 431001, Maharashtra
35|--|DLBDaulatabad (1)  08:34+1:5008:35+1:521m12-176.440575mSCRDaulatabad, Maharashtra
36|--|POZPotul (1)  08:49+1:4808:50+1:501m12-167.137554mSCRLasur, Maharashtra
37|--|LSRLasur (2)  09:09+1:4309:10+1:431m--2-155.368536mSCRAurangabad, Maharashtra
38|--|KAJGKaranjgaon  09:19+1:4509:20+1:451m--2-145.231523mSCRLasur, Maharashtra
39|--|PSDParsoda  09:29+1:4409:30+1:461m--2-140.553530mSCRRotegaon, Maharashtra
40|--|RGORotegaonX  09:44+1:4409:45+1:441m--2-128.293547mSCRAurangabad, Maharashtra
41|--|TRTarur  09:59+1:2910:00+1:361m--2-106.419586mSCRTaru, Maharashtra
42|--|NSLNagarsol (2)  10:19+1:3710:20+1:381m--2-100.221589mSCRDist. Nashik, Maharashtra
43/--/MMRManmad Junction (6)X  11:30+2711:40+2910m42-75.420580mCRManmad 423104, Maharashtra
44/=-/ANKAnkai (3)  12:18+5812:20+1:162m22-62.572620mSCRDist. Nashik, Maharashtra
45/--/YLYeola (2)  12:33+5012:35+532m--2-46.863553mCRYeola, Maharashtra
46/--/KPGKopargaon (2)12:48+3112:50+392m12-33.266508mCRKopargaon 423601, Maharashtra
47/--/SNVRSanvatsarX  12:57-12:58-1m--2-25.458521mCRNagpur-Aurngabad-Mumbai Hwy, Maharashtra
48/--/KNGNKanhegaon (2)X  13:06+1:1113:08+1:232m--2-17.854498mCRAhmadnagar, Maharashtra
49/--/PBPuntamba Junction (2)  13:18+1:2513:20+1:252m22-8.866501mCRPuntamba, Maharashtra
50/--/CITChitali (1)»X13:28+1:3213:30+1:412m120.025531mCRAhmadnagar, Maharashtra
51/--/BAPBelapur (2)  13:58+1:0814:00+1:132m2211.553541mCRShrirampur, Maharashtra
52/--/NPWNipani Vadgaon (2)  14:07-14:08-1m--217.751531mCRChitali, Maharashtra
53/--/PDGNPadhegaon (1)  14:15+1:3114:17+1:322m1223.678512mCRBelapur, Maharashtra
54/--/TKMYTaklimiya (1)  14:24-14:25-1m1232.739511mCRVambori, Maharashtra
55/--/RRIRahuri (2)X  14:33+1:3214:35+1:362m--237.961519mCRAhmadnagar, Maharashtra
56/--/VBRVambori (1)X  14:48+1:3514:50+1:362m1251.125547mCRAhmadnagar, Maharashtra
57/--/VLVilad (1)X  15:18+1:2215:20+1:222m1262.632598mCRAhmadnagar, Maharashtra
58/--/ANGAhmadnagar (2)  15:50+1:0315:55+1:055m1278.540650mCRAhmednagar 414001, Maharashtra
59/--/AKRAkolner (1)  16:14+1:1316:15+1:161m1291.343689mCRAhmadnagar, Maharashtra
60/--/SRLSarola (2)  16:23+1:1616:25+1:162m1297.1450mCRAhmadnagar, Maharashtra
61/--/RNJDRanjangaon Road (1)X  16:39+1:1416:40+1:191m12107.546656mCRDist. Pune, Maharashtra
62/--/VPRVisapur (2)X  16:48+1:2016:50+1:212m12113.729186mCRAhmadnagar, Maharashtra
63/--/BWDBelwandi (2)X  17:18+1:1017:20+1:102m12127.465592mCRAhmadnagar, Maharashtra
64/--/SGNDShrigonda Road (2)X  17:33+1:0917:35+1:092m22141.521547mCRAhmadnagar, Maharashtra
65/--/KSTHKashti (2)  17:59+5918:00+1:111m12149.817540mCRDaund, Maharashtra
66|-=%DDDaund Junction (7)X18:45+1:0619:00+1:1415m42162.750521mCRNew Daund Dist. Pune 413801, Maharashtra
67%==%PAAPatas (3)  19:14+1:0319:15+1:031m12174.358532mCRDist. Pune 412219, Maharashtra
68%==%KDTNKadethanX  19:20-19:21-1m12179.138532mCRDaund, Maharashtra
69%==%KDGKedgaon (2)  19:29+1:0119:30+1:011m22184.264544mCRDist. Pune 412203, Maharashtra
70%==%KTTKhutbav (2)X  19:36-19:37-1m12190.642558mCRShirur-Daund Rd Daund, Maharashtra
71%==%YTYevat (2)X  19:46+5819:47+581m12196.963558mCRDist. Pune 412214, Maharashtra
72%==%URIUruli (2)X  19:59+1:0720:00+1:071m12209.562553mCRDist. Pune 412202, Maharashtra
73%==%LONILoni (2)  20:12+1:0220:13+1:011m12221.956541mCRPune 412201, Maharashtra
74%==%MJBKManjari Budruk (2)X  20:19-20:20-1m12227.542550mCRPune 412307, Maharashtra
75%==%HDPHadapsar (3)  20:27+5520:28+551m22232.513554mCRPune 411028, Maharashtra
76/==/PUNEPune Junction (6)•  20:55+1:20-62238.3-556mCRPune 411001, Maharashtra
Scroll to Top
Scroll to Bottom